sensor_id;sensor_type;location;lat;lon;timestamp;pressure;altitude;pressure_sealevel;temperature;humidity
7584;BME280;3833;41.764;26.204;2022-10-16T00:00:38;101444.09;;;12.84;100.00
7584;BME280;3833;41.764;26.204;2022-10-16T00:03:05;101443.34;;;12.81;100.00
7584;BME280;3833;41.764;26.204;2022-10-16T00:05:33;101446.91;;;12.78;100.00
7584;BME280;3833;41.764;26.204;2022-10-16T00:08:05;101425.78;;;12.55;100.00
7584;BME280;3833;41.764;26.204;2022-10-16T00:10:33;101378.59;;;12.02;100.00
7584;BME280;3833;41.764;26.204;2022-10-16T00:13:02;101449.59;;;12.21;100.00
7584;BME280;3833;41.764;26.204;2022-10-16T00:15:29;101415.19;;;12.04;100.00
7584;BME280;3833;41.764;26.204;2022-10-16T00:17:56;101443.59;;;12.17;100.00
7584;BME280;3833;41.764;26.204;2022-10-16T00:20:23;101400.03;;;11.86;100.00
7584;BME280;3833;41.764;26.204;2022-10-16T00:22:49;101457.59;;;12.16;100.00
7584;BME280;3833;41.764;26.204;2022-10-16T00:25:18;101453.13;;;12.20;100.00
7584;BME280;3833;41.764;26.204;2022-10-16T00:27:48;101458.44;;;12.17;100.00
7584;BME280;3833;41.764;26.204;2022-10-16T00:30:15;101451.94;;;12.01;100.00
7584;BME280;3833;41.764;26.204;2022-10-16T00:32:42;101455.66;;;11.92;100.00
7584;BME280;3833;41.764;26.204;2022-10-16T00:35:08;101458.28;;;11.92;100.00
7584;BME280;3833;41.764;26.204;2022-10-16T00:37:35;101453.50;;;11.77;100.00
7584;BME280;3833;41.764;26.204;2022-10-16T00:40:02;101447.81;;;11.62;100.00
7584;BME280;3833;41.764;26.204;2022-10-16T00:42:31;101452.38;;;11.54;100.00
7584;BME280;3833;41.764;26.204;2022-10-16T00:44:58;101452.09;;;11.64;100.00
7584;BME280;3833;41.764;26.204;2022-10-16T00:47:29;101441.81;;;11.58;100.00
7584;BME280;3833;41.764;26.204;2022-10-16T00:50:00;101446.56;;;11.75;100.00
7584;BME280;3833;41.764;26.204;2022-10-16T00:52:29;101447.69;;;11.97;100.00
7584;BME280;3833;41.764;26.204;2022-10-16T00:54:56;101460.69;;;12.00;100.00
7584;BME280;3833;41.764;26.204;2022-10-16T00:57:27;101458.44;;;11.86;100.00
7584;BME280;3833;41.764;26.204;2022-10-16T00:59:55;101456.25;;;11.71;100.00
7584;BME280;3833;41.764;26.204;2022-10-16T01:02:23;101463.34;;;11.68;100.00
7584;BME280;3833;41.764;26.204;2022-10-16T01:04:52;101447.56;;;11.71;100.00
7584;BME280;3833;41.764;26.204;2022-10-16T01:07:30;101458.34;;;11.59;100.00
7584;BME280;3833;41.764;26.204;2022-10-16T01:10:08;101450.50;;;11.59;100.00
7584;BME280;3833;41.764;26.204;2022-10-16T01:12:41;101441.25;;;11.46;100.00
7584;BME280;3833;41.764;26.204;2022-10-16T01:15:19;101449.00;;;11.49;100.00
7584;BME280;3833;41.764;26.204;2022-10-16T01:17:53;101458.75;;;11.42;100.00
7584;BME280;3833;41.764;26.204;2022-10-16T01:20:27;101440.97;;;11.23;100.00
7584;BME280;3833;41.764;26.204;2022-10-16T01:23:07;101466.72;;;11.39;100.00
7584;BME280;3833;41.764;26.204;2022-10-16T01:25:55;101464.66;;;11.17;100.00
7584;BME280;3833;41.764;26.204;2022-10-16T01:28:31;101461.00;;;11.24;100.00
7584;BME280;3833;41.764;26.204;2022-10-16T01:30:59;101464.09;;;11.38;100.00
7584;BME280;3833;41.764;26.204;2022-10-16T01:33:31;101451.38;;;11.26;100.00
7584;BME280;3833;41.764;26.204;2022-10-16T01:36:05;101458.47;;;11.21;100.00
7584;BME280;3833;41.764;26.204;2022-10-16T01:38:36;101437.63;;;10.83;100.00
7584;BME280;3833;41.764;26.204;2022-10-16T01:41:07;101470.25;;;11.02;100.00
7584;BME280;3833;41.764;26.204;2022-10-16T01:43:39;101486.25;;;10.90;100.00
7584;BME280;3833;41.764;26.204;2022-10-16T01:46:07;101415.00;;;10.46;100.00
7584;BME280;3833;41.764;26.204;2022-10-16T01:48:35;101485.69;;;10.76;100.00
7584;BME280;3833;41.764;26.204;2022-10-16T01:51:06;101493.66;;;10.72;100.00
7584;BME280;3833;41.764;26.204;2022-10-16T01:53:34;101491.75;;;10.78;100.00
7584;BME280;3833;41.764;26.204;2022-10-16T01:56:03;101499.38;;;10.87;100.00
7584;BME280;3833;41.764;26.204;2022-10-16T01:58:35;101502.19;;;10.78;100.00
7584;BME280;3833;41.764;26.204;2022-10-16T02:01:07;101509.50;;;10.64;100.00
7584;BME280;3833;41.764;26.204;2022-10-16T02:03:36;101490.84;;;10.41;100.00
7584;BME280;3833;41.764;26.204;2022-10-16T02:06:04;101513.94;;;10.59;100.00
7584;BME280;3833;41.764;26.204;2022-10-16T02:08:31;101509.91;;;10.45;100.00
7584;BME280;3833;41.764;26.204;2022-10-16T02:10:59;101518.69;;;10.42;100.00
7584;BME280;3833;41.764;26.204;2022-10-16T02:13:31;101518.69;;;10.41;100.00
7584;BME280;3833;41.764;26.204;2022-10-16T02:15:59;101506.63;;;10.35;100.00
7584;BME280;3833;41.764;26.204;2022-10-16T02:18:28;101514.59;;;10.30;100.00
7584;BME280;3833;41.764;26.204;2022-10-16T02:20:59;101526.69;;;10.35;100.00
7584;BME280;3833;41.764;26.204;2022-10-16T02:23:32;101494.13;;;10.10;100.00
7584;BME280;3833;41.764;26.204;2022-10-16T02:26:02;101532.41;;;10.52;100.00
7584;BME280;3833;41.764;26.204;2022-10-16T02:28:35;101536.69;;;10.54;100.00
7584;BME280;3833;41.764;26.204;2022-10-16T02:31:08;101539.31;;;10.54;100.00
7584;BME280;3833;41.764;26.204;2022-10-16T02:33:40;101541.84;;;10.57;100.00
7584;BME280;3833;41.764;26.204;2022-10-16T02:36:11;101547.19;;;10.51;100.00
7584;BME280;3833;41.764;26.204;2022-10-16T02:38:40;101549.28;;;10.75;100.00
7584;BME280;3833;41.764;26.204;2022-10-16T02:41:07;101553.31;;;10.50;100.00
7584;BME280;3833;41.764;26.204;2022-10-16T02:43:34;101548.09;;;10.50;100.00
7584;BME280;3833;41.764;26.204;2022-10-16T02:46:01;101549.81;;;10.51;100.00
7584;BME280;3833;41.764;26.204;2022-10-16T02:48:28;101545.59;;;10.46;100.00
7584;BME280;3833;41.764;26.204;2022-10-16T02:50:56;101546.31;;;10.52;100.00
7584;BME280;3833;41.764;26.204;2022-10-16T02:53:23;101548.34;;;10.38;100.00
7584;BME280;3833;41.764;26.204;2022-10-16T02:55:50;101525.34;;;10.16;100.00
7584;BME280;3833;41.764;26.204;2022-10-16T02:58:17;101543.63;;;10.15;100.00
7584;BME280;3833;41.764;26.204;2022-10-16T03:00:43;101553.94;;;10.21;100.00
7584;BME280;3833;41.764;26.204;2022-10-16T03:03:13;101545.19;;;10.25;100.00
7584;BME280;3833;41.764;26.204;2022-10-16T03:05:40;101556.41;;;10.28;100.00
7584;BME280;3833;41.764;26.204;2022-10-16T03:08:08;101549.56;;;10.21;100.00
7584;BME280;3833;41.764;26.204;2022-10-16T03:10:35;101559.28;;;10.15;100.00
7584;BME280;3833;41.764;26.204;2022-10-16T03:13:02;101561.31;;;9.98;100.00
7584;BME280;3833;41.764;26.204;2022-10-16T03:15:31;101562.09;;;10.06;100.00
7584;BME280;3833;41.764;26.204;2022-10-16T03:17:59;101571.63;;;10.07;100.00
7584;BME280;3833;41.764;26.204;2022-10-16T03:20:26;101448.72;;;9.28;100.00
7584;BME280;3833;41.764;26.204;2022-10-16T03:22:53;101511.03;;;9.43;100.00
7584;BME280;3833;41.764;26.204;2022-10-16T03:25:21;101577.22;;;9.86;100.00
7584;BME280;3833;41.764;26.204;2022-10-16T03:27:49;101576.16;;;9.96;100.00
7584;BME280;3833;41.764;26.204;2022-10-16T03:30:16;101578.84;;;9.91;100.00
7584;BME280;3833;41.764;26.204;2022-10-16T03:32:44;101576.31;;;9.87;100.00
7584;BME280;3833;41.764;26.204;2022-10-16T03:35:11;101584.25;;;9.79;100.00
7584;BME280;3833;41.764;26.204;2022-10-16T03:37:38;101568.88;;;9.64;100.00
7584;BME280;3833;41.764;26.204;2022-10-16T03:40:09;101584.53;;;9.66;100.00
7584;BME280;3833;41.764;26.204;2022-10-16T03:42:37;101588.06;;;9.62;100.00
7584;BME280;3833;41.764;26.204;2022-10-16T03:45:05;101539.44;;;9.58;100.00
7584;BME280;3833;41.764;26.204;2022-10-16T03:47:32;101592.22;;;9.73;100.00
7584;BME280;3833;41.764;26.204;2022-10-16T03:49:59;101596.56;;;9.73;100.00
7584;BME280;3833;41.764;26.204;2022-10-16T03:52:26;101580.28;;;9.59;100.00
7584;BME280;3833;41.764;26.204;2022-10-16T03:54:53;101589.16;;;9.47;100.00
7584;BME280;3833;41.764;26.204;2022-10-16T03:57:23;101597.03;;;9.44;100.00
7584;BME280;3833;41.764;26.204;2022-10-16T03:59:51;101591.66;;;9.55;100.00
7584;BME280;3833;41.764;26.204;2022-10-16T04:02:18;101598.50;;;9.62;100.00
7584;BME280;3833;41.764;26.204;2022-10-16T04:04:45;101571.72;;;9.52;100.00
7584;BME280;3833;41.764;26.204;2022-10-16T04:07:12;101596.69;;;9.67;100.00
7584;BME280;3833;41.764;26.204;2022-10-16T04:09:38;101595.00;;;9.63;100.00
7584;BME280;3833;41.764;26.204;2022-10-16T04:12:05;101602.00;;;9.61;100.00
7584;BME280;3833;41.764;26.204;2022-10-16T04:14:35;101575.22;;;9.51;100.00
7584;BME280;3833;41.764;26.204;2022-10-16T04:17:03;101606.06;;;9.77;100.00
7584;BME280;3833;41.764;26.204;2022-10-16T04:19:30;101604.84;;;9.96;100.00
7584;BME280;3833;41.764;26.204;2022-10-16T04:21:57;101592.63;;;10.01;100.00
7584;BME280;3833;41.764;26.204;2022-10-16T04:24:24;101604.91;;;9.93;100.00
7584;BME280;3833;41.764;26.204;2022-10-16T04:26:50;101610.44;;;9.75;100.00
7584;BME280;3833;41.764;26.204;2022-10-16T04:29:17;101601.34;;;9.97;100.00
7584;BME280;3833;41.764;26.204;2022-10-16T04:31:44;101610.13;;;9.93;100.00
7584;BME280;3833;41.764;26.204;2022-10-16T04:34:12;101596.41;;;9.82;100.00
7584;BME280;3833;41.764;26.204;2022-10-16T04:36:39;101612.66;;;9.97;100.00
7584;BME280;3833;41.764;26.204;2022-10-16T04:39:06;101620.44;;;10.02;100.00
7584;BME280;3833;41.764;26.204;2022-10-16T04:41:33;101620.41;;;10.03;100.00
7584;BME280;3833;41.764;26.204;2022-10-16T04:44:00;101621.03;;;10.16;100.00
7584;BME280;3833;41.764;26.204;2022-10-16T04:46:29;101620.72;;;10.32;100.00
7584;BME280;3833;41.764;26.204;2022-10-16T04:48:56;101605.28;;;10.22;100.00
7584;BME280;3833;41.764;26.204;2022-10-16T04:51:24;101629.75;;;10.15;100.00
7584;BME280;3833;41.764;26.204;2022-10-16T04:53:52;101638.63;;;10.06;100.00
7584;BME280;3833;41.764;26.204;2022-10-16T04:56:19;101626.59;;;9.96;100.00
7584;BME280;3833;41.764;26.204;2022-10-16T04:58:46;101570.38;;;9.79;100.00
7584;BME280;3833;41.764;26.204;2022-10-16T05:01:13;101640.28;;;10.10;100.00
7584;BME280;3833;41.764;26.204;2022-10-16T05:03:40;101648.06;;;10.13;100.00
7584;BME280;3833;41.764;26.204;2022-10-16T05:06:07;101642.94;;;10.09;100.00
7584;BME280;3833;41.764;26.204;2022-10-16T05:08:35;101643.66;;;10.17;100.00
7584;BME280;3833;41.764;26.204;2022-10-16T05:11:02;101646.00;;;10.30;100.00
7584;BME280;3833;41.764;26.204;2022-10-16T05:13:29;101644.94;;;10.40;100.00
7584;BME280;3833;41.764;26.204;2022-10-16T05:15:55;101621.41;;;10.41;100.00
7584;BME280;3833;41.764;26.204;2022-10-16T05:18:22;101640.22;;;10.58;100.00
7584;BME280;3833;41.764;26.204;2022-10-16T05:20:49;101639.97;;;10.70;100.00
7584;BME280;3833;41.764;26.204;2022-10-16T05:23:16;101634.50;;;10.82;100.00
7584;BME280;3833;41.764;26.204;2022-10-16T05:25:52;101642.41;;;10.79;100.00
7584;BME280;3833;41.764;26.204;2022-10-16T05:28:19;101646.47;;;10.92;100.00
7584;BME280;3833;41.764;26.204;2022-10-16T05:30:45;101640.94;;;11.07;100.00
7584;BME280;3833;41.764;26.204;2022-10-16T05:33:12;101650.84;;;11.31;100.00
7584;BME280;3833;41.764;26.204;2022-10-16T05:35:39;101646.28;;;11.40;100.00
7584;BME280;3833;41.764;26.204;2022-10-16T05:38:06;101655.16;;;11.34;100.00
7584;BME280;3833;41.764;26.204;2022-10-16T05:40:33;101657.50;;;11.44;100.00
7584;BME280;3833;41.764;26.204;2022-10-16T05:43:01;101629.84;;;11.34;100.00
7584;BME280;3833;41.764;26.204;2022-10-16T05:45:29;101665.66;;;11.70;100.00
7584;BME280;3833;41.764;26.204;2022-10-16T05:47:56;101656.53;;;11.86;100.00
7584;BME280;3833;41.764;26.204;2022-10-16T05:50:23;101675.38;;;12.00;100.00
7584;BME280;3833;41.764;26.204;2022-10-16T05:52:49;101677.75;;;12.09;100.00
7584;BME280;3833;41.764;26.204;2022-10-16T05:55:16;101670.47;;;12.20;100.00
7584;BME280;3833;41.764;26.204;2022-10-16T05:57:44;101678.75;;;12.37;100.00
7584;BME280;3833;41.764;26.204;2022-10-16T06:00:13;101677.47;;;12.52;100.00
7584;BME280;3833;41.764;26.204;2022-10-16T06:02:41;101670.91;;;12.68;100.00
7584;BME280;3833;41.764;26.204;2022-10-16T06:05:08;101681.63;;;12.91;100.00
7584;BME280;3833;41.764;26.204;2022-10-16T06:07:35;101679.38;;;13.08;100.00
7584;BME280;3833;41.764;26.204;2022-10-16T06:10:03;101679.38;;;13.08;100.00
7584;BME280;3833;41.764;26.204;2022-10-16T06:12:31;101691.44;;;13.43;100.00
7584;BME280;3833;41.764;26.204;2022-10-16T06:14:57;101687.03;;;13.70;100.00
7584;BME280;3833;41.764;26.204;2022-10-16T06:17:27;101674.72;;;13.72;100.00
7584;BME280;3833;41.764;26.204;2022-10-16T06:19:55;101683.22;;;13.80;100.00
7584;BME280;3833;41.764;26.204;2022-10-16T06:22:21;101667.97;;;13.65;100.00
7584;BME280;3833;41.764;26.204;2022-10-16T06:24:48;101690.09;;;13.84;100.00
7584;BME280;3833;41.764;26.204;2022-10-16T06:27:17;101693.28;;;13.94;100.00
7584;BME280;3833;41.764;26.204;2022-10-16T06:29:45;101639.94;;;13.66;100.00
7584;BME280;3833;41.764;26.204;2022-10-16T06:32:11;101701.78;;;14.28;100.00
7584;BME280;3833;41.764;26.204;2022-10-16T06:35:04;101700.06;;;14.51;100.00
7584;BME280;3833;41.764;26.204;2022-10-16T06:37:31;101692.16;;;14.53;100.00
7584;BME280;3833;41.764;26.204;2022-10-16T06:39:58;101698.84;;;14.61;100.00
7584;BME280;3833;41.764;26.204;2022-10-16T06:42:26;101630.31;;;14.17;100.00
7584;BME280;3833;41.764;26.204;2022-10-16T06:44:55;101693.63;;;14.59;100.00
7584;BME280;3833;41.764;26.204;2022-10-16T06:47:22;101699.13;;;14.54;100.00
7584;BME280;3833;41.764;26.204;2022-10-16T06:49:50;101696.84;;;14.67;100.00
7584;BME280;3833;41.764;26.204;2022-10-16T06:52:18;101673.25;;;14.66;100.00
7584;BME280;3833;41.764;26.204;2022-10-16T06:54:46;101693.66;;;14.82;100.00
7584;BME280;3833;41.764;26.204;2022-10-16T06:57:12;101692.44;;;14.92;100.00
7584;BME280;3833;41.764;26.204;2022-10-16T06:59:40;101684.88;;;15.06;100.00
7584;BME280;3833;41.764;26.204;2022-10-16T07:02:07;101691.00;;;15.07;100.00
7584;BME280;3833;41.764;26.204;2022-10-16T07:04:36;101686.28;;;15.16;100.00
7584;BME280;3833;41.764;26.204;2022-10-16T07:07:03;101704.94;;;15.33;100.00
7584;BME280;3833;41.764;26.204;2022-10-16T07:09:31;101699.25;;;15.44;100.00
7584;BME280;3833;41.764;26.204;2022-10-16T07:11:58;101698.97;;;15.51;100.00
7584;BME280;3833;41.764;26.204;2022-10-16T07:14:25;101699.88;;;15.71;100.00
7584;BME280;3833;41.764;26.204;2022-10-16T07:16:52;101700.25;;;16.05;100.00
7584;BME280;3833;41.764;26.204;2022-10-16T07:19:19;101705.44;;;16.28;100.00
7584;BME280;3833;41.764;26.204;2022-10-16T07:21:46;101702.16;;;16.43;100.00
7584;BME280;3833;41.764;26.204;2022-10-16T07:24:14;101713.19;;;16.53;98.82
7584;BME280;3833;41.764;26.204;2022-10-16T07:26:44;101707.19;;;16.69;98.92
7584;BME280;3833;41.764;26.204;2022-10-16T07:29:13;101687.56;;;16.74;98.00
7584;BME280;3833;41.764;26.204;2022-10-16T07:31:40;101682.66;;;16.85;96.59
7584;BME280;3833;41.764;26.204;2022-10-16T07:34:07;101705.84;;;17.17;94.15
7584;BME280;3833;41.764;26.204;2022-10-16T07:36:34;101699.47;;;17.41;94.30
7584;BME280;3833;41.764;26.204;2022-10-16T07:39:01;101690.06;;;17.71;86.55
7584;BME280;3833;41.764;26.204;2022-10-16T07:41:27;101690.97;;;17.88;82.55
7584;BME280;3833;41.764;26.204;2022-10-16T07:43:56;101701.16;;;18.31;81.33
7584;BME280;3833;41.764;26.204;2022-10-16T07:46:26;101681.59;;;18.68;78.87
7584;BME280;3833;41.764;26.204;2022-10-16T07:48:53;101704.06;;;19.41;72.22
7584;BME280;3833;41.764;26.204;2022-10-16T07:51:23;101694.69;;;19.66;68.85
7584;BME280;3833;41.764;26.204;2022-10-16T07:53:50;101683.72;;;19.72;66.62
7584;BME280;3833;41.764;26.204;2022-10-16T07:56:18;101698.97;;;19.84;66.17
7584;BME280;3833;41.764;26.204;2022-10-16T07:58:46;101685.78;;;19.98;65.68
7584;BME280;3833;41.764;26.204;2022-10-16T08:01:17;101684.25;;;20.53;64.48
7584;BME280;3833;41.764;26.204;2022-10-16T08:03:45;101680.34;;;20.88;58.90
7584;BME280;3833;41.764;26.204;2022-10-16T08:06:12;101654.47;;;20.48;60.62
7584;BME280;3833;41.764;26.204;2022-10-16T08:08:39;101677.59;;;21.57;59.62
7584;BME280;3833;41.764;26.204;2022-10-16T08:11:06;101633.59;;;21.92;56.87
7584;BME280;3833;41.764;26.204;2022-10-16T08:13:33;101689.78;;;22.65;51.68
7584;BME280;3833;41.764;26.204;2022-10-16T08:16:00;101686.72;;;22.84;47.72
7584;BME280;3833;41.764;26.204;2022-10-16T08:18:29;101676.16;;;22.45;45.07
7584;BME280;3833;41.764;26.204;2022-10-16T08:20:56;101675.00;;;22.61;45.50
7584;BME280;3833;41.764;26.204;2022-10-16T08:23:24;101676.91;;;23.21;43.61
7584;BME280;3833;41.764;26.204;2022-10-16T08:25:53;101656.66;;;22.57;44.79
7584;BME280;3833;41.764;26.204;2022-10-16T08:28:20;101668.81;;;22.86;44.52
7584;BME280;3833;41.764;26.204;2022-10-16T08:30:47;101683.63;;;23.63;42.88
7584;BME280;3833;41.764;26.204;2022-10-16T08:33:14;101669.78;;;23.58;41.07
7584;BME280;3833;41.764;26.204;2022-10-16T08:35:42;101650.34;;;23.56;41.31
7584;BME280;3833;41.764;26.204;2022-10-16T08:38:10;101608.50;;;22.85;41.62
7584;BME280;3833;41.764;26.204;2022-10-16T08:40:37;101674.41;;;23.67;41.83
7584;BME280;3833;41.764;26.204;2022-10-16T08:43:33;101674.50;;;24.01;40.88
7584;BME280;3833;41.764;26.204;2022-10-16T08:46:18;101676.75;;;24.18;40.28
7584;BME280;3833;41.764;26.204;2022-10-16T08:48:50;101672.09;;;24.56;38.54
7584;BME280;3833;41.764;26.204;2022-10-16T08:51:26;101681.34;;;24.74;39.35
7584;BME280;3833;41.764;26.204;2022-10-16T08:53:56;101664.06;;;24.32;39.21
7584;BME280;3833;41.764;26.204;2022-10-16T08:56:24;101674.53;;;24.81;38.39
7584;BME280;3833;41.764;26.204;2022-10-16T08:58:52;101677.72;;;25.08;38.59
7584;BME280;3833;41.764;26.204;2022-10-16T09:01:22;101666.78;;;25.22;38.14
7584;BME280;3833;41.764;26.204;2022-10-16T09:04:17;101672.56;;;24.61;38.15
7584;BME280;3833;41.764;26.204;2022-10-16T09:06:57;101670.13;;;24.58;37.09
7584;BME280;3833;41.764;26.204;2022-10-16T09:09:43;101626.53;;;24.23;37.40
7584;BME280;3833;41.764;26.204;2022-10-16T09:12:19;101671.25;;;24.77;36.13
7584;BME280;3833;41.764;26.204;2022-10-16T09:15:00;101668.72;;;24.76;36.77
7584;BME280;3833;41.764;26.204;2022-10-16T09:17:37;101621.13;;;24.01;36.89
7584;BME280;3833;41.764;26.204;2022-10-16T09:20:16;101615.25;;;24.54;37.21
7584;BME280;3833;41.764;26.204;2022-10-16T09:22:46;101669.81;;;25.06;34.73
7584;BME280;3833;41.764;26.204;2022-10-16T09:25:15;101654.72;;;24.38;36.26
7584;BME280;3833;41.764;26.204;2022-10-16T09:27:45;101671.25;;;24.77;36.17
7584;BME280;3833;41.764;26.204;2022-10-16T09:30:14;101662.41;;;25.42;34.72
7584;BME280;3833;41.764;26.204;2022-10-16T09:32:43;101662.56;;;25.83;35.29
7584;BME280;3833;41.764;26.204;2022-10-16T09:35:33;101670.13;;;25.78;33.81
7584;BME280;3833;41.764;26.204;2022-10-16T09:38:06;101665.72;;;25.13;35.47
7584;BME280;3833;41.764;26.204;2022-10-16T09:40:35;101659.03;;;25.30;35.09
7584;BME280;3833;41.764;26.204;2022-10-16T09:43:21;101667.75;;;25.10;36.33
7584;BME280;3833;41.764;26.204;2022-10-16T09:45:59;101657.81;;;25.76;33.97
7584;BME280;3833;41.764;26.204;2022-10-16T09:48:30;101663.88;;;25.89;33.86
7584;BME280;3833;41.764;26.204;2022-10-16T09:51:00;101660.25;;;25.15;35.10
7584;BME280;3833;41.764;26.204;2022-10-16T09:53:40;101656.81;;;24.91;36.70
7584;BME280;3833;41.764;26.204;2022-10-16T09:56:09;101650.97;;;24.86;36.61
7584;BME280;3833;41.764;26.204;2022-10-16T09:58:42;101660.47;;;25.12;36.68
7584;BME280;3833;41.764;26.204;2022-10-16T10:01:13;101654.13;;;24.80;37.17
7584;BME280;3833;41.764;26.204;2022-10-16T10:03:43;101655.72;;;24.93;36.04
7584;BME280;3833;41.764;26.204;2022-10-16T10:06:20;101621.19;;;24.23;37.68
7584;BME280;3833;41.764;26.204;2022-10-16T10:09:00;101653.28;;;24.79;38.04
7584;BME280;3833;41.764;26.204;2022-10-16T10:11:47;101646.94;;;24.91;38.16
7584;BME280;3833;41.764;26.204;2022-10-16T10:14:24;101657.78;;;24.90;38.01
7584;BME280;3833;41.764;26.204;2022-10-16T10:17:01;101658.16;;;23.82;38.50
7584;BME280;3833;41.764;26.204;2022-10-16T10:19:29;101534.06;;;23.07;39.75
7584;BME280;3833;41.764;26.204;2022-10-16T10:21:55;101661.78;;;23.10;40.48
7584;BME280;3833;41.764;26.204;2022-10-16T10:24:24;101605.00;;;22.34;42.10
7584;BME280;3833;41.764;26.204;2022-10-16T10:26:56;101650.56;;;24.12;41.41
7584;BME280;3833;41.764;26.204;2022-10-16T10:29:48;101645.03;;;24.82;39.23
7584;BME280;3833;41.764;26.204;2022-10-16T10:32:26;101584.81;;;24.44;39.40
7584;BME280;3833;41.764;26.204;2022-10-16T10:35:06;101575.94;;;23.87;40.74
7584;BME280;3833;41.764;26.204;2022-10-16T10:37:45;101644.91;;;23.93;41.36
7584;BME280;3833;41.764;26.204;2022-10-16T10:40:28;101644.94;;;23.09;43.76
7584;BME280;3833;41.764;26.204;2022-10-16T10:42:59;101625.03;;;24.08;41.66
7584;BME280;3833;41.764;26.204;2022-10-16T10:45:38;101625.47;;;23.91;42.15
7584;BME280;3833;41.764;26.204;2022-10-16T10:48:23;101629.94;;;24.25;42.30
7584;BME280;3833;41.764;26.204;2022-10-16T10:50:55;101629.59;;;22.75;44.39
7584;BME280;3833;41.764;26.204;2022-10-16T10:53:35;101629.41;;;21.49;46.42
7584;BME280;3833;41.764;26.204;2022-10-16T10:56:14;101639.66;;;21.41;47.73
7584;BME280;3833;41.764;26.204;2022-10-16T10:59:01;101643.81;;;21.59;48.13
7584;BME280;3833;41.764;26.204;2022-10-16T11:01:39;101614.25;;;22.66;45.70
7584;BME280;3833;41.764;26.204;2022-10-16T11:04:34;101606.78;;;22.84;45.18
7584;BME280;3833;41.764;26.204;2022-10-16T11:07:09;101530.31;;;22.36;45.75
7584;BME280;3833;41.764;26.204;2022-10-16T11:09:41;101634.94;;;22.75;46.92
7584;BME280;3833;41.764;26.204;2022-10-16T11:12:20;101623.41;;;22.75;46.37
7584;BME280;3833;41.764;26.204;2022-10-16T11:14:54;101614.25;;;22.79;45.81
7584;BME280;3833;41.764;26.204;2022-10-16T11:17:28;101636.72;;;22.87;45.32
7584;BME280;3833;41.764;26.204;2022-10-16T11:20:04;101614.25;;;22.66;46.57
7584;BME280;3833;41.764;26.204;2022-10-16T11:22:39;101632.00;;;23.15;45.49
7584;BME280;3833;41.764;26.204;2022-10-16T11:25:13;101575.06;;;23.16;45.46
7584;BME280;3833;41.764;26.204;2022-10-16T11:27:47;101626.22;;;23.93;44.51
7584;BME280;3833;41.764;26.204;2022-10-16T11:30:19;101605.06;;;23.43;44.84
7584;BME280;3833;41.764;26.204;2022-10-16T11:32:58;101618.97;;;24.06;44.72
7584;BME280;3833;41.764;26.204;2022-10-16T11:35:37;101621.63;;;24.40;43.46
7584;BME280;3833;41.764;26.204;2022-10-16T11:38:13;101610.38;;;24.70;43.22
7584;BME280;3833;41.764;26.204;2022-10-16T11:40:43;101617.47;;;25.15;41.89
7584;BME280;3833;41.764;26.204;2022-10-16T11:43:19;101618.78;;;25.62;41.53
7584;BME280;3833;41.764;26.204;2022-10-16T11:45:51;101621.31;;;25.11;40.49
7584;BME280;3833;41.764;26.204;2022-10-16T11:48:26;101622.53;;;24.85;41.24
7584;BME280;3833;41.764;26.204;2022-10-16T11:50:56;101608.84;;;24.44;42.90
7584;BME280;3833;41.764;26.204;2022-10-16T11:53:38;101617.56;;;24.24;41.92
7584;BME280;3833;41.764;26.204;2022-10-16T11:56:12;101616.44;;;23.81;42.56
7584;BME280;3833;41.764;26.204;2022-10-16T11:58:54;101629.59;;;24.75;42.81
7584;BME280;3833;41.764;26.204;2022-10-16T12:01:30;101622.25;;;25.42;40.59
7584;BME280;3833;41.764;26.204;2022-10-16T12:04:04;101598.50;;;25.60;40.05
7584;BME280;3833;41.764;26.204;2022-10-16T12:06:37;101630.63;;;23.22;42.00
7584;BME280;3833;41.764;26.204;2022-10-16T12:09:13;101636.22;;;22.82;43.84
7584;BME280;3833;41.764;26.204;2022-10-16T12:11:42;101646.81;;;23.19;43.91
7584;BME280;3833;41.764;26.204;2022-10-16T12:14:35;101634.69;;;23.98;42.72
7584;BME280;3833;41.764;26.204;2022-10-16T12:17:24;101620.31;;;24.57;41.78
7584;BME280;3833;41.764;26.204;2022-10-16T12:19:59;101589.00;;;24.81;41.13
7584;BME280;3833;41.764;26.204;2022-10-16T12:22:28;101627.75;;;25.83;40.58
7584;BME280;3833;41.764;26.204;2022-10-16T12:24:56;101629.09;;;25.35;39.89
7584;BME280;3833;41.764;26.204;2022-10-16T12:27:28;101601.16;;;24.96;40.46
7584;BME280;3833;41.764;26.204;2022-10-16T12:29:59;101641.41;;;25.69;38.89
7584;BME280;3833;41.764;26.204;2022-10-16T12:32:31;101647.97;;;25.76;39.78
7584;BME280;3833;41.764;26.204;2022-10-16T12:35:00;101648.31;;;24.97;40.11
7584;BME280;3833;41.764;26.204;2022-10-16T12:37:54;101653.22;;;23.89;41.39
7584;BME280;3833;41.764;26.204;2022-10-16T12:40:55;101639.56;;;23.21;42.87
7584;BME280;3833;41.764;26.204;2022-10-16T12:43:46;101627.25;;;23.67;42.69
7584;BME280;3833;41.764;26.204;2022-10-16T12:46:39;101646.81;;;22.95;43.69
7584;BME280;3833;41.764;26.204;2022-10-16T12:49:22;101637.56;;;24.19;43.54
7584;BME280;3833;41.764;26.204;2022-10-16T12:51:51;101644.38;;;24.57;40.58
7584;BME280;3833;41.764;26.204;2022-10-16T12:54:19;101576.28;;;23.59;43.31
7584;BME280;3833;41.764;26.204;2022-10-16T12:56:57;101634.81;;;23.73;42.77
7584;BME280;3833;41.764;26.204;2022-10-16T12:59:37;101649.22;;;23.12;43.31
7584;BME280;3833;41.764;26.204;2022-10-16T13:02:41;101617.22;;;22.49;44.18
7584;BME280;3833;41.764;26.204;2022-10-16T13:05:22;101643.09;;;21.43;46.53
7584;BME280;3833;41.764;26.204;2022-10-16T13:08:00;101661.34;;;21.76;46.34
7584;BME280;3833;41.764;26.204;2022-10-16T13:10:37;101655.81;;;22.44;45.34
7584;BME280;3833;41.764;26.204;2022-10-16T13:13:37;101652.41;;;22.92;44.74
7584;BME280;3833;41.764;26.204;2022-10-16T13:16:15;101651.94;;;22.98;44.08